Time;durP1;ratioP1;P1;durP2;ratioP2;P2;SDS_P1;SDS_P2;PMS_P1;PMS_P2;Temp;Humidity;BMP_temperature;BMP_pressure;BME280_temperature;BME280_humidity;BME280_pressure;Samples;Min_cycle;Max_cycle;Signal;HPM_P1;HPM_P2
2022/08/09 00:02:19;;;;;;;;;;;;;;;21.86;44.03;102421.69;5024835;28;19917;-53
2022/08/09 00:04:44;;;;;;;;;;;;;;;21.83;44.13;102417.44;5021710;28;19964;-56
2022/08/09 00:07:09;;;;;;;;;;;;;;;21.82;44.37;102413.03;5020339;28;20380;-55
2022/08/09 00:09:35;;;;;;;;;;;;;;;21.80;44.35;102412.31;5023911;28;20387;-55
2022/08/09 00:12:00;;;;;;;;;;;;;;;21.79;44.22;102413.28;5009535;28;19971;-55
2022/08/09 00:14:26;;;;;;;;;;;;;;;21.80;44.41;102412.31;5026139;28;19955;-57
2022/08/09 00:16:51;;;;;;;;;;;;;;;21.78;44.33;102411.56;5022659;28;19971;-57
2022/08/09 00:19:16;;;;;;;;;;;;;;;21.78;44.35;102414.25;5024766;28;20407;-55
2022/08/09 00:21:41;;;;;;;;;;;;;;;21.76;44.29;102410.84;5030894;28;19921;-54
2022/08/09 00:24:07;;;;;;;;;;;;;;;21.73;44.67;102414.63;5022460;28;19966;-52
2022/08/09 00:26:32;;;;;;;;;;;;;;;21.70;44.69;102409.50;5030766;28;19927;-54
2022/08/09 00:28:58;;;;;;;;;;;;;;;21.70;44.70;102412.19;5020117;28;19921;-54
2022/08/09 00:31:24;;;;;;;;;;;;;;;21.68;44.77;102407.94;5028143;28;19925;-52
2022/08/09 00:33:50;;;;;;;;;;;;;;;21.67;44.67;102400.88;5022642;28;19913;-53
2022/08/09 00:36:15;;;;;;;;;;;;;;;21.65;44.69;102408.16;5027219;28;19932;-55
2022/08/09 00:38:40;;;;;;;;;;;;;;;21.62;44.97;102404.75;5028533;28;20004;-56
2022/08/09 00:41:06;;;;;;;;;;;;;;;21.60;45.05;102404.00;5011892;28;20027;-54
2022/08/09 00:43:33;;;;;;;;;;;;;;;21.56;44.83;102399.84;5027160;28;19932;-54
2022/08/09 00:45:58;;;;;;;;;;;;;;;21.50;45.07;102405.69;5025012;28;20384;-54
2022/08/09 00:48:23;;;;;;;;;;;;;;;21.42;45.13;102403.59;5029338;28;19936;-54
2022/08/09 00:50:49;;;;;;;;;;;;;;;21.38;45.18;102410.16;5022318;28;19921;-54
2022/08/09 00:53:14;;;;;;;;;;;;;;;21.39;45.47;102393.13;5027005;28;19976;-54
2022/08/09 00:55:40;;;;;;;;;;;;;;;21.41;45.24;102403.72;5021735;28;19917;-54
2022/08/09 00:58:05;;;;;;;;;;;;;;;21.42;45.49;102402.75;5022685;28;20001;-54
2022/08/09 01:00:31;;;;;;;;;;;;;;;21.39;45.28;102405.69;5025901;28;20065;-55
2022/08/09 01:03:15;;;;;;;;;;;;;;;21.32;45.67;102403.47;5029083;28;20307;-56
2022/08/09 01:05:43;;;;;;;;;;;;;;;21.24;45.70;102403.22;5022015;28;20348;-54
2022/08/09 01:08:18;;;;;;;;;;;;;;;21.19;45.93;102407.19;5019479;28;19928;-52
2022/08/09 01:10:52;;;;;;;;;;;;;;;21.13;45.80;102403.16;5024588;28;19921;-55
2022/08/09 01:13:22;;;;;;;;;;;;;;;21.08;45.86;102411.56;5025457;28;19940;-54
2022/08/09 01:15:50;;;;;;;;;;;;;;;21.02;46.11;102404.84;5002305;28;19917;-54
2022/08/09 01:18:18;;;;;;;;;;;;;;;20.95;46.14;102411.63;5025567;28;19921;-53
2022/08/09 01:21:02;;;;;;;;;;;;;;;20.90;46.36;102408.47;5027959;28;19927;-54
2022/08/09 01:23:46;;;;;;;;;;;;;;;20.89;46.48;102417.47;5019234;28;19924;-55
2022/08/09 01:26:11;;;;;;;;;;;;;;;20.91;46.28;102409.31;5030530;28;19952;-54
2022/08/09 01:28:40;;;;;;;;;;;;;;;20.84;46.64;102406.25;5023390;28;19967;-57
2022/08/09 01:31:10;;;;;;;;;;;;;;;20.80;46.93;102404.75;5024976;28;19917;-56
2022/08/09 01:33:37;;;;;;;;;;;;;;;20.74;46.79;102408.72;5022382;28;19928;-55
2022/08/09 01:36:04;;;;;;;;;;;;;;;20.70;46.79;102404.59;5027709;28;19925;-57
2022/08/09 01:38:33;;;;;;;;;;;;;;;20.68;47.13;102410.03;5019031;28;20388;-55
2022/08/09 01:41:19;;;;;;;;;;;;;;;20.63;46.98;102414.91;5017334;28;19923;-54
2022/08/09 01:43:45;;;;;;;;;;;;;;;20.62;47.28;102415.88;5025918;28;20373;-54
2022/08/09 01:46:12;;;;;;;;;;;;;;;20.63;47.02;102411.34;5021676;28;19928;-54
2022/08/09 01:48:38;;;;;;;;;;;;;;;20.61;46.97;102419.50;5020773;28;19921;-54
2022/08/09 01:51:04;;;;;;;;;;;;;;;20.58;47.21;102419.72;5019666;28;20039;-54
2022/08/09 01:53:31;;;;;;;;;;;;;;;20.56;47.49;102421.66;5021906;28;19916;-52
2022/08/09 01:55:57;;;;;;;;;;;;;;;20.56;47.25;102417.19;5024027;28;19968;-57
2022/08/09 01:58:24;;;;;;;;;;;;;;;20.61;47.60;102419.50;5020959;28;19948;-54
2022/08/09 02:00:51;;;;;;;;;;;;;;;20.68;47.43;102414.56;5018222;28;20414;-54
2022/08/09 02:03:17;;;;;;;;;;;;;;;20.72;47.15;102410.69;5021657;28;19920;-55
2022/08/09 02:05:44;;;;;;;;;;;;;;;20.73;47.19;102416.88;5019092;28;19921;-53
2022/08/09 02:08:11;;;;;;;;;;;;;;;20.74;47.16;102408.72;5018842;28;20291;-54
2022/08/09 02:10:39;;;;;;;;;;;;;;;20.76;47.12;102411.34;5017667;28;19990;-55
2022/08/09 02:13:05;;;;;;;;;;;;;;;20.75;47.10;102410.47;5023597;28;19932;-54
2022/08/09 02:15:33;;;;;;;;;;;;;;;20.79;47.14;102413.78;5019322;28;19939;-57
2022/08/09 02:17:59;;;;;;;;;;;;;;;20.81;47.33;102419.84;5025725;28;19925;-54
2022/08/09 02:20:25;;;;;;;;;;;;;;;20.84;47.38;102408.91;5017616;28;19983;-55
2022/08/09 02:22:53;;;;;;;;;;;;;;;20.84;47.10;102406.25;5031308;28;19921;-55
2022/08/09 02:25:27;;;;;;;;;;;;;;;20.86;47.09;102415.00;5029361;28;19921;-54
2022/08/09 02:28:02;;;;;;;;;;;;;;;20.87;47.24;102414.06;5034034;28;19936;-55
2022/08/09 02:30:34;;;;;;;;;;;;;;;20.90;47.25;102419.19;5022121;28;19924;-54
2022/08/09 02:33:00;;;;;;;;;;;;;;;20.91;46.91;102415.53;5027043;28;19937;-54
2022/08/09 02:35:26;;;;;;;;;;;;;;;20.91;47.03;102422.69;5025527;28;19929;-53
2022/08/09 02:37:54;;;;;;;;;;;;;;;20.91;46.91;102423.56;5025625;28;19929;-53
2022/08/09 02:40:21;;;;;;;;;;;;;;;20.89;47.15;102416.59;5025814;28;19917;-55
2022/08/09 02:42:48;;;;;;;;;;;;;;;20.84;47.22;102419.63;5023038;28;19930;-54
2022/08/09 02:45:20;;;;;;;;;;;;;;;20.80;47.09;102421.69;5019928;28;20440;-56
2022/08/09 02:47:45;;;;;;;;;;;;;;;20.73;47.17;102425.75;5023924;28;19926;-54
2022/08/09 02:50:13;;;;;;;;;;;;;;;20.71;47.26;102428.53;5023504;28;20320;-53
2022/08/09 02:52:56;;;;;;;;;;;;;;;20.69;47.25;102425.13;5027456;28;19929;-54
2022/08/09 02:55:23;;;;;;;;;;;;;;;20.65;47.44;102428.97;5012508;28;19929;-53
2022/08/09 02:57:50;;;;;;;;;;;;;;;20.61;47.32;102430.19;5024415;28;19917;-54
2022/08/09 03:00:15;;;;;;;;;;;;;;;20.60;47.36;102432.97;5024657;28;19917;-53
2022/08/09 03:02:46;;;;;;;;;;;;;;;20.57;47.53;102431.38;5023894;28;20262;-55
2022/08/09 03:05:11;;;;;;;;;;;;;;;20.54;47.46;102431.59;5008301;28;20285;-54
2022/08/09 03:07:37;;;;;;;;;;;;;;;20.51;47.42;102434.50;5026857;28;20414;-53
2022/08/09 03:10:03;;;;;;;;;;;;;;;20.46;47.63;102431.34;5027992;28;19921;-52
2022/08/09 03:12:29;;;;;;;;;;;;;;;20.43;47.46;102436.91;5026903;28;19925;-57
2022/08/09 03:14:55;;;;;;;;;;;;;;;20.40;47.57;102433.47;5027287;28;19922;-55
2022/08/09 03:17:22;;;;;;;;;;;;;;;20.33;47.53;102431.38;5026266;28;19917;-53
2022/08/09 03:19:47;;;;;;;;;;;;;;;20.28;47.72;102429.03;5027027;28;19983;-55
2022/08/09 03:22:13;;;;;;;;;;;;;;;20.25;47.87;102435.47;5024414;28;20380;-54
2022/08/09 03:24:38;;;;;;;;;;;;;;;20.21;47.97;102430.44;5029149;28;19968;-56
2022/08/09 03:27:06;;;;;;;;;;;;;;;20.16;48.00;102432.59;5017727;28;19952;-53
2022/08/09 03:29:32;;;;;;;;;;;;;;;20.14;48.03;102437.19;5025232;28;19925;-53
2022/08/09 03:31:58;;;;;;;;;;;;;;;20.08;48.32;102441.16;5024066;28;19964;-54
2022/08/09 03:34:23;;;;;;;;;;;;;;;20.07;48.23;102440.28;5028614;28;19968;-57
2022/08/09 03:36:49;;;;;;;;;;;;;;;20.05;48.19;102441.38;5025667;28;19928;-56
2022/08/09 03:39:14;;;;;;;;;;;;;;;20.01;48.59;102438.06;5025221;28;19972;-55
2022/08/09 03:41:39;;;;;;;;;;;;;;;20.00;48.47;102444.38;5019469;28;19921;-55
2022/08/09 03:44:05;;;;;;;;;;;;;;;20.02;48.29;102445.13;5027600;28;19940;-56
2022/08/09 03:46:30;;;;;;;;;;;;;;;20.03;48.40;102446.84;5032925;28;19967;-56
2022/08/09 03:48:57;;;;;;;;;;;;;;;20.06;48.55;102448.44;5021692;28;20327;-53
2022/08/09 03:51:27;;;;;;;;;;;;;;;20.05;48.30;102450.22;5024632;28;19921;-52
2022/08/09 03:53:53;;;;;;;;;;;;;;;20.01;48.57;102456.78;5026954;28;20436;-55
2022/08/09 03:56:18;;;;;;;;;;;;;;;20.01;48.64;102459.44;5026979;28;20019;-54
2022/08/09 03:58:44;;;;;;;;;;;;;;;19.99;48.58;102464.03;5028688;28;19971;-52
2022/08/09 04:01:10;;;;;;;;;;;;;;;19.99;48.61;102458.69;5028312;28;19928;-54
2022/08/09 04:03:37;;;;;;;;;;;;;;;19.95;48.95;102454.53;5020314;28;20016;-56
2022/08/09 04:06:03;;;;;;;;;;;;;;;19.95;48.82;102454.53;5022356;28;20403;-54
2022/08/09 04:08:28;;;;;;;;;;;;;;;19.92;48.92;102454.75;5025395;28;19917;-53
2022/08/09 04:10:53;;;;;;;;;;;;;;;19.90;49.22;102456.66;5025649;28;19921;-55
2022/08/09 04:13:19;;;;;;;;;;;;;;;19.88;49.37;102461.28;5024239;28;19921;-55
2022/08/09 04:15:44;;;;;;;;;;;;;;;19.80;49.43;102456.44;5027058;28;19975;-54
2022/08/09 04:18:09;;;;;;;;;;;;;;;19.76;49.63;102466.47;5027156;28;20376;-55
2022/08/09 04:20:35;;;;;;;;;;;;;;;19.75;49.96;102459.41;5033942;28;19917;-54
2022/08/09 04:23:00;;;;;;;;;;;;;;;19.75;49.86;102461.25;5024323;28;19963;-55
2022/08/09 04:25:25;;;;;;;;;;;;;;;19.75;49.81;102470.09;5030372;28;20361;-51
2022/08/09 04:27:51;;;;;;;;;;;;;;;19.75;50.04;102471.94;5025980;28;20431;-53
2022/08/09 04:30:21;;;;;;;;;;;;;;;19.74;50.19;102470.22;5027278;28;20012;-52
2022/08/09 04:32:47;;;;;;;;;;;;;;;19.72;50.02;102481.00;5029189;28;20016;-52
2022/08/09 04:35:13;;;;;;;;;;;;;;;19.71;50.36;102476.63;5030652;28;20016;-55
2022/08/09 04:37:38;;;;;;;;;;;;;;;19.72;50.22;102483.69;5032339;28;19917;-55
2022/08/09 04:40:04;;;;;;;;;;;;;;;19.75;50.07;102478.09;5030110;28;20411;-54
2022/08/09 04:42:30;;;;;;;;;;;;;;;19.79;50.04;102476.94;5011952;28;19927;-55
2022/08/09 04:44:55;;;;;;;;;;;;;;;19.86;50.14;102481.88;5034917;28;20016;-55
2022/08/09 04:47:21;;;;;;;;;;;;;;;19.90;50.08;102483.38;5022356;28;19917;-54
2022/08/09 04:49:47;;;;;;;;;;;;;;;19.91;50.01;102491.28;5030116;28;19932;-55
2022/08/09 04:52:12;;;;;;;;;;;;;;;19.86;50.28;102492.56;5024327;28;19927;-55
2022/08/09 04:54:38;;;;;;;;;;;;;;;19.80;50.26;102494.69;5024055;28;19951;-55
2022/08/09 04:57:03;;;;;;;;;;;;;;;19.77;50.47;102500.22;5019889;28;19925;-55
2022/08/09 04:59:28;;;;;;;;;;;;;;;19.75;50.75;102501.31;5023001;28;20304;-55
2022/08/09 05:01:54;;;;;;;;;;;;;;;19.73;50.41;102498.75;5018463;28;20310;-51
2022/08/09 05:04:19;;;;;;;;;;;;;;;19.71;50.82;102500.66;5015567;28;19935;-53
2022/08/09 05:06:44;;;;;;;;;;;;;;;19.71;50.93;102495.31;5013633;28;20084;-54
2022/08/09 05:09:09;;;;;;;;;;;;;;;19.74;50.77;102495.09;5025388;28;19917;-59
2022/08/09 05:11:35;;;;;;;;;;;;;;;19.77;50.69;102504.72;5021188;28;19921;-55
2022/08/09 05:14:00;;;;;;;;;;;;;;;19.76;50.91;102500.34;5021312;28;19921;-55
2022/08/09 05:16:25;;;;;;;;;;;;;;;19.77;51.03;102516.25;5030717;28;20330;-56
2022/08/09 05:18:51;;;;;;;;;;;;;;;19.77;50.84;102510.91;5021236;28;20048;-56
2022/08/09 05:21:16;;;;;;;;;;;;;;;19.76;51.13;102503.84;5022992;28;19925;-54
2022/08/09 05:23:42;;;;;;;;;;;;;;;19.75;50.89;102512.81;5022589;28;19928;-54
2022/08/09 05:26:07;;;;;;;;;;;;;;;19.75;50.96;102510.16;5026098;28;20323;-58
2022/08/09 05:28:33;;;;;;;;;;;;;;;19.75;51.12;102512.81;5021660;28;19961;-53
2022/08/09 05:30:58;;;;;;;;;;;;;;;19.77;51.11;102515.41;5022477;28;19953;-57
2022/08/09 05:33:24;;;;;;;;;;;;;;;19.75;51.18;102515.50;5019996;28;20043;-54
2022/08/09 05:35:49;;;;;;;;;;;;;;;19.73;51.27;102514.78;5023942;28;19953;-54
2022/08/09 05:38:14;;;;;;;;;;;;;;;19.73;51.59;102514.78;5011557;28;19921;-54
2022/08/09 05:40:40;;;;;;;;;;;;;;;19.75;51.33;102512.81;5018865;28;19921;-55
2022/08/09 05:43:06;;;;;;;;;;;;;;;19.78;51.27;102522.47;5021402;28;19921;-54
2022/08/09 05:45:31;;;;;;;;;;;;;;;19.77;51.38;102518.09;5017400;28;19930;-55
2022/08/09 05:47:57;;;;;;;;;;;;;;;19.78;51.37;102528.66;5011802;28;20426;-54
2022/08/09 05:50:24;;;;;;;;;;;;;;;19.80;51.68;102525.88;5033622;28;19929;-55
2022/08/09 05:52:49;;;;;;;;;;;;;;;19.83;51.41;102522.97;5025220;28;20578;-55
2022/08/09 05:55:15;;;;;;;;;;;;;;;19.87;51.55;102527.19;5027509;28;20610;-54
2022/08/09 05:57:40;;;;;;;;;;;;;;;19.92;51.23;102525.06;5013687;28;20408;-55
2022/08/09 06:00:09;;;;;;;;;;;;;;;19.94;51.53;102527.63;5020288;28;19924;-53
2022/08/09 06:02:34;;;;;;;;;;;;;;;19.95;51.54;102529.34;5018548;28;19920;-56
2022/08/09 06:05:01;;;;;;;;;;;;;;;19.91;51.37;102531.38;5034628;22;19935;-60
2022/08/09 06:07:26;;;;;;;;;;;;;;;19.90;51.46;102526.13;5041785;28;19996;-60
2022/08/09 06:09:52;;;;;;;;;;;;;;;19.91;51.50;102526.03;5035453;28;19932;-61
2022/08/09 06:12:17;;;;;;;;;;;;;;;19.97;51.43;102540.78;5031005;28;19928;-62
2022/08/09 06:14:42;;;;;;;;;;;;;;;19.99;51.54;102541.53;5042727;28;19925;-61
2022/08/09 06:17:08;;;;;;;;;;;;;;;19.99;51.39;102546.88;5034460;28;19960;-60
2022/08/09 06:19:33;;;;;;;;;;;;;;;19.98;51.64;102547.81;5034536;28;19924;-58
2022/08/09 06:21:58;;;;;;;;;;;;;;;20.01;51.65;102547.63;5038206;28;19928;-61
2022/08/09 06:24:24;;;;;;;;;;;;;;;20.05;51.57;102550.91;5058520;28;20322;-62
2022/08/09 06:26:49;;;;;;;;;;;;;;;20.07;51.18;102555.19;5041111;28;19921;-60
2022/08/09 06:29:14;;;;;;;;;;;;;;;20.10;51.50;102554.97;5030091;28;19921;-61
2022/08/09 06:31:40;;;;;;;;;;;;;;;20.12;51.53;102556.69;5038184;28;19931;-61
2022/08/09 06:34:05;;;;;;;;;;;;;;;20.12;51.35;102557.53;5043734;28;19925;-60
2022/08/09 06:36:31;;;;;;;;;;;;;;;20.14;51.18;102557.44;5045917;28;19922;-61
2022/08/09 06:38:56;;;;;;;;;;;;;;;20.16;51.44;102558.19;5049921;28;19924;-60
2022/08/09 06:41:22;;;;;;;;;;;;;;;20.24;51.19;102566.50;5044379;28;19956;-60
2022/08/09 06:43:47;;;;;;;;;;;;;;;20.32;51.30;102553.47;5050951;28;19931;-63
2022/08/09 06:46:13;;;;;;;;;;;;;;;20.37;50.96;102551.31;5043740;28;19916;-62
2022/08/09 06:48:40;;;;;;;;;;;;;;;20.44;50.98;102556.25;5041492;28;19974;-61
2022/08/09 06:51:05;;;;;;;;;;;;;;;20.47;50.91;102550.69;5041443;28;19971;-61
2022/08/09 06:53:31;;;;;;;;;;;;;;;20.50;50.62;102556.66;5043109;28;19924;-62
2022/08/09 06:55:58;;;;;;;;;;;;;;;20.53;50.71;102555.56;5039190;28;19970;-58
2022/08/09 06:58:23;;;;;;;;;;;;;;;20.55;50.71;102564.34;5053425;28;19999;-56
2022/08/09 07:00:48;;;;;;;;;;;;;;;20.58;50.53;102556.09;5044042;28;20027;-57
2022/08/09 07:03:13;;;;;;;;;;;;;;;20.63;50.50;102555.78;5044178;28;19928;-58
2022/08/09 07:05:39;;;;;;;;;;;;;;;20.67;50.09;102558.09;5047031;28;19924;-56
2022/08/09 07:08:04;;;;;;;;;;;;;;;20.70;50.24;102552.53;5040003;28;19979;-55
2022/08/09 07:10:31;;;;;;;;;;;;;;;20.74;49.88;102558.50;5049770;28;20445;-57
2022/08/09 07:12:56;;;;;;;;;;;;;;;20.80;49.54;102559.91;5049933;28;20003;-56
2022/08/09 07:15:21;;;;;;;;;;;;;;;20.83;49.22;102562.38;5045388;28;20024;-59
2022/08/09 07:17:47;;;;;;;;;;;;;;;20.90;49.31;102554.75;5043627;28;20303;-63
2022/08/09 07:20:13;;;;;;;;;;;;;;;20.96;49.22;102563.19;5037623;28;19924;-63
2022/08/09 07:22:38;;;;;;;;;;;;;;;21.02;48.91;102557.38;5044420;28;19923;-59
2022/08/09 07:25:04;;;;;;;;;;;;;;;21.11;48.97;102565.69;5039366;28;19921;-62
2022/08/09 07:27:29;;;;;;;;;;;;;;;21.16;48.53;102567.09;5048146;28;19925;-62
2022/08/09 07:29:54;;;;;;;;;;;;;;;21.17;48.25;102565.25;5039405;28;20012;-62
2022/08/09 07:32:20;;;;;;;;;;;;;;;21.20;47.71;102575.75;5049622;28;20296;-59
2022/08/09 07:34:45;;;;;;;;;;;;;;;21.23;47.66;102569.28;5045913;28;19925;-63
2022/08/09 07:37:11;;;;;;;;;;;;;;;21.28;47.56;102569.81;5049055;28;19917;-64
2022/08/09 07:39:36;;;;;;;;;;;;;;;21.32;47.32;102579.31;5049711;28;21058;-62
2022/08/09 07:42:02;;;;;;;;;;;;;;;21.36;47.23;102572.75;5052813;28;20387;-60
2022/08/09 07:44:27;;;;;;;;;;;;;;;21.41;46.70;102580.44;5048289;28;19923;-63
2022/08/09 07:46:52;;;;;;;;;;;;;;;21.41;46.46;102572.41;5047005;28;20387;-62
2022/08/09 07:49:18;;;;;;;;;;;;;;;21.45;46.41;102576.56;5048330;28;20020;-61
2022/08/09 07:51:43;;;;;;;;;;;;;;;21.49;46.23;102575.38;5046080;28;19960;-60
2022/08/09 07:54:08;;;;;;;;;;;;;;;21.56;46.23;102573.06;5051376;28;19921;-63
2022/08/09 07:56:35;;;;;;;;;;;;;;;21.58;45.33;102585.38;5044074;28;19981;-64
2022/08/09 07:59:00;;;;;;;;;;;;;;;21.60;45.63;102580.78;5038104;28;19921;-62
2022/08/09 08:01:25;;;;;;;;;;;;;;;21.61;45.29;102574.47;5039155;28;20303;-63
2022/08/09 08:03:51;;;;;;;;;;;;;;;21.66;45.21;102584.81;5049230;28;20544;-62
2022/08/09 08:06:16;;;;;;;;;;;;;;;21.72;45.10;102583.50;5051141;28;19931;-62
2022/08/09 08:08:41;;;;;;;;;;;;;;;21.74;44.77;102578.88;5038956;28;20295;-62
2022/08/09 08:11:07;;;;;;;;;;;;;;;21.76;44.36;102576.94;5040845;28;20624;-63
2022/08/09 08:13:32;;;;;;;;;;;;;;;21.78;44.52;102575.00;5044714;28;19974;-63
2022/08/09 08:15:57;;;;;;;;;;;;;;;21.83;44.33;102578.19;5048721;28;20058;-60
2022/08/09 08:18:22;;;;;;;;;;;;;;;21.89;44.47;102577.69;5040861;28;19920;-63
2022/08/09 08:20:48;;;;;;;;;;;;;;;21.91;43.93;102570.41;5035467;28;19917;-62
2022/08/09 08:23:15;;;;;;;;;;;;;;;21.91;43.85;102573.06;5049475;28;20433;-62
2022/08/09 08:25:41;;;;;;;;;;;;;;;21.92;44.02;102558.72;5043642;28;19929;-63
2022/08/09 08:28:06;;;;;;;;;;;;;;;21.97;44.21;102573.59;5053778;28;19924;-59
2022/08/09 08:30:31;;;;;;;;;;;;;;;22.01;44.01;102572.34;5049963;28;20007;-63
2022/08/09 08:32:57;;;;;;;;;;;;;;;22.07;43.91;102577.25;5050500;28;20015;-62
2022/08/09 08:35:22;;;;;;;;;;;;;;;22.12;44.02;102566.16;5044399;28;19999;-59
2022/08/09 08:37:47;;;;;;;;;;;;;;;22.17;43.79;102569.34;5050177;28;19920;-63
2022/08/09 08:40:13;;;;;;;;;;;;;;;22.21;44.04;102577.03;5048177;28;20052;-61
2022/08/09 08:42:40;;;;;;;;;;;;;;;22.23;43.84;102569.72;5050088;28;19920;-63
2022/08/09 08:45:06;;;;;;;;;;;;;;;22.27;43.53;102577.53;5046017;28;19924;-62
2022/08/09 08:47:32;;;;;;;;;;;;;;;22.29;43.74;102570.22;5041945;28;19924;-63
2022/08/09 08:49:58;;;;;;;;;;;;;;;22.32;43.70;102586.03;5050466;28;19913;-60
2022/08/09 08:52:25;;;;;;;;;;;;;;;22.36;43.62;102580.31;5047438;28;20019;-60
2022/08/09 08:54:54;;;;;;;;;;;;;;;22.41;43.54;102581.78;5049091;28;19988;-61
2022/08/09 08:57:20;;;;;;;;;;;;;;;22.41;43.45;102585.31;5049920;28;19912;-62
2022/08/09 08:59:46;;;;;;;;;;;;;;;22.44;43.23;102577.06;5047502;28;19925;-63
2022/08/09 09:02:16;;;;;;;;;;;;;;;22.44;43.04;102577.06;5044208;28;19925;-62
2022/08/09 09:04:42;;;;;;;;;;;;;;;22.44;42.71;102563.66;5050014;28;19920;-61
2022/08/09 09:07:09;;;;;;;;;;;;;;;22.46;42.55;102572.41;5044182;28;19920;-62
2022/08/09 09:09:35;;;;;;;;;;;;;;;22.47;42.85;102574.13;5050447;28;19916;-61
2022/08/09 09:12:01;;;;;;;;;;;;;;;22.49;42.71;102565.97;5048422;28;20384;-60
2022/08/09 09:14:28;;;;;;;;;;;;;;;22.51;42.73;102572.91;5051551;28;19912;-60
2022/08/09 09:16:54;;;;;;;;;;;;;;;22.55;42.71;102573.50;5042151;28;19975;-58
2022/08/09 09:19:19;;;;;;;;;;;;;;;22.60;42.63;102570.47;5045455;28;19959;-60
2022/08/09 09:22:01;;;;;;;;;;;;;;;22.64;42.46;102575.47;5043728;28;19921;-60
2022/08/09 09:24:27;;;;;;;;;;;;;;;22.71;42.43;102578.50;5037557;28;20023;-62
2022/08/09 09:26:54;;;;;;;;;;;;;;;22.76;42.62;102576.31;5044634;28;19925;-61
2022/08/09 09:29:29;;;;;;;;;;;;;;;22.80;42.07;102575.06;5041196;28;20055;-60
2022/08/09 09:31:55;;;;;;;;;;;;;;;22.90;42.25;102587.75;5047766;28;19924;-63
2022/08/09 09:34:20;;;;;;;;;;;;;;;22.92;42.13;102575.91;5047614;28;19916;-61
2022/08/09 09:36:46;;;;;;;;;;;;;;;22.98;42.31;102574.53;5042778;28;19928;-62
2022/08/09 09:39:11;;;;;;;;;;;;;;;23.03;42.02;102579.53;5043966;28;19933;-62
2022/08/09 09:41:36;;;;;;;;;;;;;;;23.06;42.00;102574.78;5041566;28;19974;-60
2022/08/09 09:44:03;;;;;;;;;;;;;;;23.07;41.82;102568.41;5048618;28;19956;-62
2022/08/09 09:46:30;;;;;;;;;;;;;;;23.13;41.91;102572.44;5047203;28;20384;-62
2022/08/09 09:48:56;;;;;;;;;;;;;;;23.19;41.72;102571.06;5047243;28;19936;-58
2022/08/09 09:51:21;;;;;;;;;;;;;;;23.24;41.73;102568.88;5047452;28;20391;-63
2022/08/09 09:54:00;;;;;;;;;;;;;;;23.31;41.90;102563.84;5046998;28;19921;-61
2022/08/09 09:56:33;;;;;;;;;;;;;;;23.38;41.54;102567.72;5047381;28;19940;-61
2022/08/09 09:58:59;;;;;;;;;;;;;;;23.45;41.59;102566.22;5048312;28;19996;-62
2022/08/09 10:01:24;;;;;;;;;;;;;;;23.52;41.35;102561.19;5046300;28;20055;-63
2022/08/09 10:03:50;;;;;;;;;;;;;;;23.58;41.31;102566.91;5048816;28;19913;-63
2022/08/09 10:06:16;;;;;;;;;;;;;;;23.65;41.27;102551.09;5050070;28;19982;-62
2022/08/09 10:08:42;;;;;;;;;;;;;;;23.73;41.18;102550.44;5034481;28;20016;-59
2022/08/09 10:11:26;;;;;;;;;;;;;;;23.83;41.13;102548.66;5049831;28;19924;-62
2022/08/09 10:13:52;;;;;;;;;;;;;;;23.95;40.88;102548.56;5026119;28;20422;-61
2022/08/09 10:16:26;;;;;;;;;;;;;;;24.05;40.67;102545.00;5043368;28;22424;-59
2022/08/09 10:18:52;;;;;;;;;;;;;;;24.17;40.69;102544.91;5038937;28;20285;-57
2022/08/09 10:21:18;;;;;;;;;;;;;;;24.28;40.71;102552.03;5034503;28;19949;-60
2022/08/09 10:23:43;;;;;;;;;;;;;;;24.35;40.39;102548.66;5042438;28;19916;-61
2022/08/09 10:26:09;;;;;;;;;;;;;;;24.40;40.35;102547.41;5033450;28;19921;-60
2022/08/09 10:28:35;;;;;;;;;;;;;;;24.38;40.15;102542.13;5033804;28;19928;-62
2022/08/09 10:31:01;;;;;;;;;;;;;;;24.35;40.14;102543.28;5022157;28;19917;-61
2022/08/09 10:33:26;;;;;;;;;;;;;;;24.36;40.14;102544.13;5038313;28;19931;-64
2022/08/09 10:35:52;;;;;;;;;;;;;;;24.37;40.39;102531.53;5022917;28;20003;-62
2022/08/09 10:38:17;;;;;;;;;;;;;;;24.39;40.32;102537.63;5041294;28;19982;-63
2022/08/09 10:40:43;;;;;;;;;;;;;;;24.42;40.26;102535.50;5021229;28;19964;-57
2022/08/09 10:43:09;;;;;;;;;;;;;;;24.46;39.91;102533.38;5031183;28;21120;-66
2022/08/09 10:45:35;;;;;;;;;;;;;;;24.49;40.13;102528.59;5041544;28;19925;-59
2022/08/09 10:48:19;;;;;;;;;;;;;;;24.51;39.66;102531.16;5048168;28;20023;-63
2022/08/09 10:51:05;;;;;;;;;;;;;;;24.51;39.30;102539.22;5046107;28;19916;-63
2022/08/09 10:53:49;;;;;;;;;;;;;;;24.47;39.19;102529.72;5051229;28;19923;-59
2022/08/09 10:56:19;;;;;;;;;;;;;;;24.44;39.22;102528.16;5048814;28;20360;-60
2022/08/09 10:58:45;;;;;;;;;;;;;;;24.44;39.25;102524.59;5035597;28;19921;-58
2022/08/09 11:01:29;;;;;;;;;;;;;;;24.43;39.29;102528.31;5044106;28;20803;-58
2022/08/09 11:04:13;;;;;;;;;;;;;;;24.44;39.36;102527.28;5037415;28;19986;-58
2022/08/09 11:06:40;;;;;;;;;;;;;;;24.45;39.20;102527.16;5037925;28;19921;-61
2022/08/09 11:09:06;;;;;;;;;;;;;;;24.49;39.06;102517.84;5041203;28;19928;-61
2022/08/09 11:11:50;;;;;;;;;;;;;;;24.55;39.18;102527.19;5050357;28;19952;-57
2022/08/09 11:14:28;;;;;;;;;;;;;;;24.63;38.68;102523.81;5048853;28;19963;-60
2022/08/09 11:16:55;;;;;;;;;;;;;;;24.71;38.57;102517.78;5049402;28;19929;-59
2022/08/09 11:19:40;;;;;;;;;;;;;;;24.78;38.34;102516.22;5027228;28;19974;-62
2022/08/09 11:22:07;;;;;;;;;;;;;;;24.88;37.99;102519.75;5042521;28;19917;-62
2022/08/09 11:25:02;;;;;;;;;;;;;;;24.96;38.03;102514.53;5048244;28;19929;-60
2022/08/09 11:27:31;;;;;;;;;;;;;;;25.06;37.90;102519.94;5040714;28;20023;-60
2022/08/09 11:29:57;;;;;;;;;;;;;;;25.10;37.79;102544.72;5051808;28;20503;-62
2022/08/09 11:32:41;;;;;;;;;;;;;;;25.11;37.07;102524.88;5046820;28;20383;-59
2022/08/09 11:35:13;;;;;;;;;;;;;;;25.06;36.67;102521.75;5051909;28;20439;-60
2022/08/09 11:37:38;;;;;;;;;;;;;;;24.99;36.70;102524.16;5047724;28;19995;-59
2022/08/09 11:40:05;;;;;;;;;;;;;;;24.96;36.65;102528.00;5050791;28;19924;-62
2022/08/09 11:42:57;;;;;;;;;;;;;;;24.96;36.77;102522.63;5050885;28;20031;-61
2022/08/09 11:45:46;;;;;;;;;;;;;;;25.00;36.50;102523.19;5045924;28;19920;-63
2022/08/09 11:48:14;;;;;;;;;;;;;;;25.01;36.81;102521.34;5052902;28;19925;-62
2022/08/09 11:51:02;;;;;;;;;;;;;;;25.02;36.55;102518.50;5049776;28;19916;-61
2022/08/09 11:53:29;;;;;;;;;;;;;;;25.04;36.56;102515.66;5047200;28;19998;-61
2022/08/09 11:55:55;;;;;;;;;;;;;;;25.07;36.46;102515.38;5048394;28;19917;-61
2022/08/09 11:58:22;;;;;;;;;;;;;;;25.08;36.36;102512.56;5050072;28;19928;-64
2022/08/09 12:00:49;;;;;;;;;;;;;;;25.13;36.33;102522.03;5048523;28;19924;-62
2022/08/09 12:03:15;;;;;;;;;;;;;;;25.13;36.41;102525.59;5054611;28;19928;-62
2022/08/09 12:05:41;;;;;;;;;;;;;;;25.17;36.21;102521.63;5043127;28;19928;-62
2022/08/09 12:08:08;;;;;;;;;;;;;;;25.16;36.30;102524.44;5049693;28;19925;-60
2022/08/09 12:10:34;;;;;;;;;;;;;;;25.13;36.51;102522.03;5046684;28;19958;-60
2022/08/09 12:12:59;;;;;;;;;;;;;;;25.11;36.83;102522.19;5052535;28;20295;-59
2022/08/09 12:15:26;;;;;;;;;;;;;;;25.13;36.86;102520.22;5048939;28;19921;-58
2022/08/09 12:17:52;;;;;;;;;;;;;;;25.18;37.02;102517.09;5050961;28;20457;-60
2022/08/09 12:20:19;;;;;;;;;;;;;;;25.21;37.02;102517.63;5047765;28;19978;-61
2022/08/09 12:22:45;;;;;;;;;;;;;;;25.27;37.25;102517.09;5044954;28;19917;-57
2022/08/09 12:25:15;;;;;;;;;;;;;;;25.31;37.22;102514.94;5042199;28;19936;-59
2022/08/09 12:27:40;;;;;;;;;;;;;;;25.34;37.14;102511.97;5044407;28;20007;-60
2022/08/09 12:30:06;;;;;;;;;;;;;;;25.36;37.42;102515.38;5049227;28;20119;-60
2022/08/09 12:32:32;;;;;;;;;;;;;;;25.35;37.21;102513.66;5048766;28;19932;-61
2022/08/09 12:35:01;;;;;;;;;;;;;;;25.33;37.34;102514.81;5053448;28;19921;-63
2022/08/09 12:37:31;;;;;;;;;;;;;;;25.32;37.67;102507.72;5049585;28;19924;-62